createdAt,value
2018-02-08T00:00:36.712Z,101857.32
2018-02-08T00:01:41.543Z,101853.48
2018-02-08T00:02:45.790Z,101857.08
2018-02-08T00:03:50.063Z,101855.62
2018-02-08T00:04:54.251Z,101849.44
2018-02-08T00:05:59.196Z,101855.30
2018-02-08T00:07:03.804Z,101859.05
2018-02-08T00:08:08.307Z,101856.02
2018-02-08T00:09:12.874Z,101856.77
2018-02-08T00:10:17.087Z,101860.86
2018-02-08T00:11:21.275Z,101854.02
2018-02-08T00:12:25.475Z,101853.11
2018-02-08T00:13:29.713Z,101857.64
2018-02-08T00:14:34.002Z,101859.09
2018-02-08T00:15:38.751Z,101861.08
2018-02-08T00:16:43.006Z,101858.89
2018-02-08T00:17:47.255Z,101860.50
2018-02-08T00:18:51.478Z,101865.30
2018-02-08T00:19:55.692Z,101866.59
2018-02-08T00:20:59.944Z,101864.80
2018-02-08T00:22:04.835Z,101864.88
2018-02-08T00:23:09.193Z,101869.93
2018-02-08T00:24:13.530Z,101864.50
2018-02-08T00:25:17.748Z,101869.91
2018-02-08T00:26:21.988Z,101863.06
2018-02-08T00:27:26.251Z,101865.20
2018-02-08T00:28:31.259Z,101863.51
2018-02-08T00:29:36.607Z,101860.16
2018-02-08T00:30:40.943Z,101866.22
2018-02-08T00:31:45.148Z,101869.86
2018-02-08T00:32:50.125Z,101861.55
2018-02-08T00:33:54.336Z,101859.09
2018-02-08T00:34:58.554Z,101858.72
2018-02-08T00:36:03.342Z,101858.72
2018-02-08T00:37:07.759Z,101859.53
2018-02-08T00:38:12.033Z,101867.39
2018-02-08T00:39:17.038Z,101861.17
2018-02-08T00:40:21.304Z,101867.23
2018-02-08T00:41:26.276Z,101868.31
2018-02-08T00:42:30.491Z,101872.45
2018-02-08T00:43:35.440Z,101870.22
2018-02-08T00:44:40.476Z,101866.80
2018-02-08T00:45:45.524Z,101872.03
2018-02-08T00:46:50.495Z,101868.22
2018-02-08T00:47:54.684Z,101871.86
2018-02-08T00:48:58.867Z,101872.96
2018-02-08T00:50:04.020Z,101872.08
2018-02-08T00:51:08.348Z,101881.36
2018-02-08T00:52:12.576Z,101877.37
2018-02-08T00:53:16.787Z,101883.67
2018-02-08T00:54:20.958Z,101883.86
2018-02-08T00:55:25.140Z,101885.01
2018-02-08T00:56:29.775Z,101887.55
2018-02-08T00:57:35.320Z,101886.04
2018-02-08T00:58:39.628Z,101885.28
2018-02-08T00:59:44.623Z,101882.52
2018-02-08T01:00:48.832Z,101876.86
2018-02-08T01:01:53.527Z,101880.70
2018-02-08T01:02:57.721Z,101878.06
2018-02-08T01:04:01.972Z,101878.88
2018-02-08T01:05:06.344Z,101880.67
2018-02-08T01:06:10.582Z,101879.25
2018-02-08T01:07:14.915Z,101881.84
2018-02-08T01:08:19.098Z,101877.37
2018-02-08T01:09:23.309Z,101877.73
2018-02-08T01:10:27.522Z,101875.02
2018-02-08T01:11:31.727Z,101878.64
2018-02-08T01:12:36.101Z,101875.31
2018-02-08T01:13:41.115Z,101876.95
2018-02-08T01:14:45.664Z,101876.69
2018-02-08T01:15:50.335Z,101882.45
2018-02-08T01:16:54.579Z,101877.98
2018-02-08T01:17:59.562Z,101879.40
2018-02-08T01:19:03.961Z,101881.63
2018-02-08T01:20:08.275Z,101886.55
2018-02-08T01:21:12.590Z,101885.56
2018-02-08T01:22:16.809Z,101887.13
2018-02-08T01:23:21.023Z,101891.94
2018-02-08T01:24:25.216Z,101891.86
2018-02-08T01:25:29.414Z,101892.85
2018-02-08T01:26:33.787Z,101881.37
2018-02-08T01:27:38.065Z,101883.06
2018-02-08T01:28:42.807Z,101879.40
2018-02-08T01:29:47.008Z,101881.02
2018-02-08T01:30:51.215Z,101884.09
2018-02-08T01:31:55.433Z,101880.46
2018-02-08T01:32:59.619Z,101887.61
2018-02-08T01:34:04.794Z,101884.66
2018-02-08T01:35:09.793Z,101882.61
2018-02-08T01:36:14.165Z,101885.19
2018-02-08T01:37:19.156Z,101882.97
2018-02-08T01:38:23.330Z,101884.94
2018-02-08T01:39:27.511Z,101882.30
2018-02-08T01:40:32.912Z,101883.95
2018-02-08T01:41:37.172Z,101885.88
2018-02-08T01:42:41.396Z,101886.16
2018-02-08T01:43:46.355Z,101881.35
2018-02-08T01:44:50.609Z,101887.56
2018-02-08T01:45:55.560Z,101883.59
2018-02-08T01:46:59.740Z,101879.08
2018-02-08T01:48:04.037Z,101878.49
2018-02-08T01:49:08.278Z,101877.37
2018-02-08T01:50:13.353Z,101871.30
2018-02-08T01:51:17.595Z,101872.62
2018-02-08T01:52:21.813Z,101876.12
2018-02-08T01:53:26.023Z,101877.33
2018-02-08T01:54:30.231Z,101877.37
2018-02-08T01:55:36.029Z,101880.72
2018-02-08T01:56:40.516Z,101877.43
2018-02-08T01:57:45.496Z,101877.56
2018-02-08T01:58:49.717Z,101886.85
2018-02-08T01:59:53.922Z,101886.14
2018-02-08T02:00:58.166Z,101879.14
2018-02-08T02:02:03.501Z,101871.98
2018-02-08T02:03:07.819Z,101871.98
2018-02-08T02:04:12.802Z,101872.11
2018-02-08T02:05:17.515Z,101875.86
2018-02-08T02:06:21.701Z,101872.56
2018-02-08T02:07:26.683Z,101876.31
2018-02-08T02:08:30.887Z,101876.35
2018-02-08T02:09:35.220Z,101868.94
2018-02-08T02:10:39.857Z,101878.19
2018-02-08T02:11:44.835Z,101866.36
2018-02-08T02:12:49.098Z,101867.84
2018-02-08T02:13:54.065Z,101867.93
2018-02-08T02:14:58.247Z,101867.83
2018-02-08T02:16:03.312Z,101865.25
2018-02-08T02:17:08.133Z,101868.33
2018-02-08T02:18:12.405Z,101867.44
2018-02-08T02:19:17.412Z,101868.60
2018-02-08T02:20:21.641Z,101868.73
2018-02-08T02:21:25.826Z,101867.52
2018-02-08T02:22:30.056Z,101866.86
2018-02-08T02:23:34.328Z,101864.41
2018-02-08T02:24:38.576Z,101868.70
2018-02-08T02:25:42.823Z,101860.53
2018-02-08T02:26:47.015Z,101869.45
2018-02-08T02:27:52.019Z,101875.44
2018-02-08T02:28:56.207Z,101874.14
2018-02-08T02:30:00.554Z,101870.66
2018-02-08T02:31:04.865Z,101872.67
2018-02-08T02:32:09.177Z,101877.22
2018-02-08T02:33:14.167Z,101874.81
2018-02-08T02:34:18.368Z,101873.61
2018-02-08T02:35:22.607Z,101872.80
2018-02-08T02:36:26.843Z,101870.60
2018-02-08T02:37:31.055Z,101876.45
2018-02-08T02:38:36.396Z,101874.89
2018-02-08T02:39:42.125Z,101875.08
2018-02-08T02:40:46.412Z,101876.02
2018-02-08T02:41:50.607Z,101880.83
2018-02-08T02:42:54.778Z,101880.69
2018-02-08T02:43:59.044Z,101884.66
2018-02-08T02:45:03.486Z,101887.97
2018-02-08T02:46:08.432Z,101889.84
2018-02-08T02:47:13.490Z,101891.39
2018-02-08T02:48:17.704Z,101888.42
2018-02-08T02:49:21.941Z,101887.17
2018-02-08T02:50:26.149Z,101886.55
2018-02-08T02:51:30.339Z,101891.37
2018-02-08T02:52:34.950Z,101884.74
2018-02-08T02:53:39.251Z,101884.56
2018-02-08T02:54:44.382Z,101885.59
2018-02-08T02:55:48.580Z,101887.61
2018-02-08T02:56:52.784Z,101882.96
2018-02-08T02:57:57.236Z,101882.29
2018-02-08T02:59:01.440Z,101881.00
2018-02-08T03:00:06.226Z,101883.76
2018-02-08T03:01:10.477Z,101888.44
2018-02-08T03:02:14.707Z,101885.80
2018-02-08T03:03:18.883Z,101887.05
2018-02-08T03:04:23.896Z,101881.42
2018-02-08T03:05:28.112Z,101888.16
2018-02-08T03:06:32.520Z,101882.50
2018-02-08T03:07:36.770Z,101882.45
2018-02-08T03:08:41.057Z,101878.58
2018-02-08T03:09:46.066Z,101881.42
2018-02-08T03:10:50.251Z,101881.12
2018-02-08T03:11:54.455Z,101873.05
2018-02-08T03:12:58.667Z,101874.05
2018-02-08T03:14:03.039Z,101876.05
2018-02-08T03:15:08.067Z,101876.00
2018-02-08T03:16:13.690Z,101871.81
2018-02-08T03:17:17.902Z,101868.86
2018-02-08T03:18:22.139Z,101873.15
2018-02-08T03:19:27.102Z,101874.61
2018-02-08T03:20:31.315Z,101868.41
2018-02-08T03:21:35.739Z,101869.89
2018-02-08T03:22:40.004Z,101871.68
2018-02-08T03:23:44.990Z,101871.36
2018-02-08T03:24:49.235Z,101871.86
2018-02-08T03:25:53.474Z,101871.23
2018-02-08T03:26:57.707Z,101867.27
2018-02-08T03:28:01.910Z,101864.09
2018-02-08T03:29:07.120Z,101869.27
2018-02-08T03:30:11.371Z,101874.22
2018-02-08T03:31:16.552Z,101866.27
2018-02-08T03:32:21.498Z,101867.80
2018-02-08T03:33:25.716Z,101868.92
2018-02-08T03:34:29.983Z,101866.51
2018-02-08T03:35:34.230Z,101869.41
2018-02-08T03:36:38.566Z,101867.67
2018-02-08T03:37:42.942Z,101871.68
2018-02-08T03:38:47.139Z,101868.92
2018-02-08T03:39:51.367Z,101871.59
2018-02-08T03:40:56.533Z,101870.52
2018-02-08T03:42:00.791Z,101869.45
2018-02-08T03:43:05.500Z,101874.28
2018-02-08T03:44:09.825Z,101875.80
2018-02-08T03:45:14.380Z,101870.84
2018-02-08T03:46:18.639Z,101864.11
2018-02-08T03:47:22.829Z,101866.02
2018-02-08T03:48:27.063Z,101864.46
2018-02-08T03:49:31.337Z,101870.27
2018-02-08T03:50:35.706Z,101860.22
2018-02-08T03:51:40.985Z,101864.91
2018-02-08T03:52:45.238Z,101864.69
2018-02-08T03:53:49.423Z,101861.48
2018-02-08T03:54:53.631Z,101865.17
2018-02-08T03:55:57.835Z,101862.23
2018-02-08T03:57:02.107Z,101864.68
2018-02-08T03:58:07.361Z,101861.78
2018-02-08T03:59:11.705Z,101864.91
2018-02-08T04:00:15.988Z,101862.85
2018-02-08T04:01:21.009Z,101859.52
2018-02-08T04:02:25.964Z,101856.16
2018-02-08T04:03:30.162Z,101860.81
2018-02-08T04:04:35.805Z,101864.73
2018-02-08T04:05:40.246Z,101860.39
2018-02-08T04:06:44.926Z,101859.77
2018-02-08T04:07:49.915Z,101864.19
2018-02-08T04:08:54.104Z,101860.70
2018-02-08T04:09:58.283Z,101866.02
2018-02-08T04:11:03.341Z,101862.59
2018-02-08T04:12:07.960Z,101864.54
2018-02-08T04:13:12.244Z,101869.18
2018-02-08T04:14:16.466Z,101867.56
2018-02-08T04:15:20.652Z,101871.14
2018-02-08T04:16:24.867Z,101867.76
2018-02-08T04:17:30.239Z,101868.92
2018-02-08T04:18:35.074Z,101864.80
2018-02-08T04:19:40.266Z,101865.92
2018-02-08T04:20:45.710Z,101868.00
2018-02-08T04:21:50.697Z,101867.87
2018-02-08T04:22:54.929Z,101867.63
2018-02-08T04:23:59.110Z,101871.42
2018-02-08T04:25:04.076Z,101871.38
2018-02-08T04:26:08.467Z,101864.73
2018-02-08T04:27:12.743Z,101865.09
2018-02-08T04:28:17.034Z,101875.59
2018-02-08T04:29:22.004Z,101879.16
2018-02-08T04:30:26.208Z,101875.92
2018-02-08T04:31:30.387Z,101874.50
2018-02-08T04:32:34.704Z,101874.11
2018-02-08T04:33:39.053Z,101870.33
2018-02-08T04:34:43.301Z,101877.98
2018-02-08T04:35:48.435Z,101872.67
2018-02-08T04:36:53.437Z,101878.81
2018-02-08T04:37:57.689Z,101879.80
2018-02-08T04:39:20.399Z,101876.16
2018-02-08T04:40:42.454Z,101866.03
2018-02-08T04:42:05.621Z,101865.50
2018-02-08T04:43:27.710Z,101872.91
2018-02-08T04:44:49.673Z,101872.50
2018-02-08T04:46:12.428Z,101866.89
2018-02-08T04:47:28.584Z,101867.02
2018-02-08T04:48:32.882Z,101871.27
2018-02-08T04:49:37.316Z,101871.75
2018-02-08T04:50:41.708Z,101865.85
2018-02-08T04:51:45.937Z,101874.13
2018-02-08T04:52:50.119Z,101871.08
2018-02-08T04:53:54.647Z,101865.55
2018-02-08T04:54:58.908Z,101872.43
2018-02-08T04:56:04.175Z,101876.00
2018-02-08T04:57:09.592Z,101873.41
2018-02-08T04:58:13.824Z,101876.58
2018-02-08T04:59:18.078Z,101876.31
2018-02-08T05:00:22.315Z,101870.42
2018-02-08T05:01:27.270Z,101868.52
2018-02-08T05:02:31.678Z,101868.70
2018-02-08T05:03:36.317Z,101869.05
2018-02-08T05:04:40.817Z,101867.50
2018-02-08T05:05:45.074Z,101868.20
2018-02-08T05:06:49.308Z,101866.75
2018-02-08T05:07:53.510Z,101869.50
2018-02-08T05:08:57.871Z,101867.41
2018-02-08T05:10:02.181Z,101874.50
2018-02-08T05:11:06.485Z,101874.63
2018-02-08T05:12:11.489Z,101875.36
2018-02-08T05:13:16.466Z,101875.94
2018-02-08T05:14:20.747Z,101872.48
2018-02-08T05:15:25.704Z,101879.52
2018-02-08T05:16:29.921Z,101885.50
2018-02-08T05:17:34.132Z,101874.52
2018-02-08T05:18:38.374Z,101878.20
2018-02-08T05:19:43.215Z,101879.08
2018-02-08T05:20:48.234Z,101886.69
2018-02-08T05:21:52.459Z,101884.37
2018-02-08T05:22:56.653Z,101884.93
2018-02-08T05:24:01.294Z,101881.88
2018-02-08T05:25:06.225Z,101886.38
2018-02-08T05:26:10.624Z,101889.27
2018-02-08T05:27:14.816Z,101885.39
2018-02-08T05:28:19.726Z,101878.34
2018-02-08T05:29:23.940Z,101887.30
2018-02-08T05:30:28.133Z,101883.92
2018-02-08T05:31:32.727Z,101879.02
2018-02-08T05:32:37.010Z,101882.25
2018-02-08T05:33:42.168Z,101885.73
2018-02-08T05:34:47.683Z,101886.22
2018-02-08T05:35:51.908Z,101885.23
2018-02-08T05:36:56.140Z,101894.23
2018-02-08T05:38:00.409Z,101886.25
2018-02-08T05:39:04.761Z,101887.81
2018-02-08T05:40:09.018Z,101885.69
2018-02-08T05:41:13.213Z,101881.18
2018-02-08T05:42:17.444Z,101883.98
2018-02-08T05:43:21.649Z,101879.03
2018-02-08T05:44:25.855Z,101877.83
2018-02-08T05:45:30.101Z,101879.62
2018-02-08T05:46:34.559Z,101879.72
2018-02-08T05:47:39.643Z,101879.53
2018-02-08T05:48:43.845Z,101883.23
2018-02-08T05:49:48.098Z,101872.93
2018-02-08T05:50:53.133Z,101880.02
2018-02-08T05:51:57.343Z,101887.55
2018-02-08T05:53:02.344Z,101878.69
2018-02-08T05:54:07.390Z,101882.25
2018-02-08T05:55:11.673Z,101886.11
2018-02-08T05:56:15.893Z,101886.27
2018-02-08T05:57:20.082Z,101889.69
2018-02-08T05:58:24.276Z,101885.66
2018-02-08T05:59:28.478Z,101886.77
2018-02-08T06:00:32.774Z,101886.81
2018-02-08T06:01:37.087Z,101889.07
2018-02-08T06:02:41.295Z,101891.98
2018-02-08T06:03:45.509Z,101892.97
2018-02-08T06:04:49.701Z,101889.31
2018-02-08T06:05:55.396Z,101893.73
2018-02-08T06:06:59.641Z,101890.70
2018-02-08T06:08:04.170Z,101892.20
2018-02-08T06:09:08.422Z,101893.18
2018-02-08T06:10:12.652Z,101896.88
2018-02-08T06:11:16.950Z,101895.00
2018-02-08T06:12:21.218Z,101894.80
2018-02-08T06:13:26.225Z,101901.06
2018-02-08T06:14:30.425Z,101903.22
2018-02-08T06:15:34.876Z,101903.25
2018-02-08T06:16:39.230Z,101903.94
2018-02-08T06:17:43.483Z,101911.78
2018-02-08T06:18:47.686Z,101906.66
2018-02-08T06:19:51.886Z,101916.86
2018-02-08T06:20:56.148Z,101909.42
2018-02-08T06:22:00.384Z,101912.58
2018-02-08T06:23:04.842Z,101908.37
2018-02-08T06:24:10.061Z,101908.16
2018-02-08T06:25:14.321Z,101909.05
2018-02-08T06:26:19.357Z,101913.30
2018-02-08T06:27:23.590Z,101917.73
2018-02-08T06:28:27.854Z,101919.05
2018-02-08T06:29:32.070Z,101919.92
2018-02-08T06:30:36.423Z,101918.47
2018-02-08T06:31:41.393Z,101917.98
2018-02-08T06:32:45.588Z,101920.23
2018-02-08T06:33:49.841Z,101931.08
2018-02-08T06:34:54.898Z,101917.57
2018-02-08T06:35:59.870Z,101925.70
2018-02-08T06:37:04.325Z,101924.51
2018-02-08T06:38:08.791Z,101924.69
2018-02-08T06:39:13.085Z,101921.10
2018-02-08T06:40:17.267Z,101927.00
2018-02-08T06:41:22.211Z,101928.64
2018-02-08T06:42:26.391Z,101919.22
2018-02-08T06:43:31.357Z,101922.21
2018-02-08T06:44:35.642Z,101918.86
2018-02-08T06:45:40.654Z,101917.43
2018-02-08T06:46:45.625Z,101917.83
2018-02-08T06:47:49.833Z,101916.28
2018-02-08T06:48:54.010Z,101913.44
2018-02-08T06:49:59.031Z,101906.39
2018-02-08T06:51:03.441Z,101912.72
2018-02-08T06:52:08.480Z,101912.23
2018-02-08T06:53:13.233Z,101914.52
2018-02-08T06:54:17.448Z,101915.84
2018-02-08T06:55:21.670Z,101913.44
2018-02-08T06:56:25.894Z,101913.37
2018-02-08T06:57:30.117Z,101910.77
2018-02-08T06:58:35.912Z,101913.55
2018-02-08T06:59:40.210Z,101914.30
2018-02-08T07:00:45.218Z,101913.63
2018-02-08T07:01:49.430Z,101917.66
2018-02-08T07:02:53.653Z,101920.70
2018-02-08T07:03:58.617Z,101926.62
2018-02-08T07:05:03.374Z,101926.99
2018-02-08T07:06:09.420Z,101923.77
2018-02-08T07:07:13.823Z,101929.72
2018-02-08T07:08:18.046Z,101930.66
2018-02-08T07:09:22.291Z,101936.77
2018-02-08T07:10:26.539Z,101937.08
2018-02-08T07:11:30.726Z,101942.32
2018-02-08T07:12:35.873Z,101937.44
2018-02-08T07:13:40.128Z,101937.91
2018-02-08T07:14:44.365Z,101942.02
2018-02-08T07:15:49.110Z,101940.09
2018-02-08T07:16:54.073Z,101934.23
2018-02-08T07:17:58.265Z,101939.20
2018-02-08T07:19:02.531Z,101936.91
2018-02-08T07:20:08.006Z,101935.98
2018-02-08T07:21:13.040Z,101942.11
2018-02-08T07:22:17.268Z,101945.37
2018-02-08T07:23:21.486Z,101946.47
2018-02-08T07:24:25.698Z,101952.56
2018-02-08T07:25:29.914Z,101949.88
2018-02-08T07:26:34.229Z,101955.25
2018-02-08T07:27:39.432Z,101952.50
2018-02-08T07:28:43.713Z,101951.87
2018-02-08T07:29:47.912Z,101955.23
2018-02-08T07:30:52.094Z,101951.87
2018-02-08T07:31:56.300Z,101956.78
2018-02-08T07:33:00.571Z,101950.61
2018-02-08T07:34:05.816Z,101953.72
2018-02-08T07:35:10.082Z,101953.62
2018-02-08T07:36:14.330Z,101950.73
2018-02-08T07:37:19.283Z,101950.98
2018-02-08T07:38:23.484Z,101955.03
2018-02-08T07:39:27.748Z,101951.57
2018-02-08T07:40:31.978Z,101952.55
2018-02-08T07:41:37.083Z,101951.22
2018-02-08T07:42:41.319Z,101948.68
2018-02-08T07:43:45.565Z,101948.33
2018-02-08T07:44:49.863Z,101944.89
2018-02-08T07:45:54.819Z,101944.02
2018-02-08T07:46:59.046Z,101938.62
2018-02-08T07:48:03.405Z,101941.38
2018-02-08T07:49:08.448Z,101940.12
2018-02-08T07:50:13.841Z,101940.98
2018-02-08T07:51:18.075Z,101942.91
2018-02-08T07:52:22.308Z,101945.59
2018-02-08T07:53:27.328Z,101947.64
2018-02-08T07:54:32.756Z,101952.05
2018-02-08T07:55:37.175Z,101950.12
2018-02-08T07:56:42.549Z,101960.13
2018-02-08T07:57:46.766Z,101969.05
2018-02-08T07:58:50.989Z,101965.67
2018-02-08T07:59:55.235Z,101964.46
2018-02-08T08:00:59.428Z,101961.87
2018-02-08T08:02:03.683Z,101967.61
2018-02-08T08:03:08.087Z,101963.06
2018-02-08T08:04:13.130Z,101961.77
2018-02-08T08:05:17.400Z,101959.47
2018-02-08T08:06:21.612Z,101960.60
2018-02-08T08:07:25.836Z,101959.23
2018-02-08T08:08:30.087Z,101966.67
2018-02-08T08:09:34.317Z,101965.87
2018-02-08T08:10:38.930Z,101960.20
2018-02-08T08:11:43.157Z,101957.04
2018-02-08T08:12:47.438Z,101959.09
2018-02-08T08:13:51.642Z,101963.33
2018-02-08T08:14:56.592Z,101964.30
2018-02-08T08:16:00.819Z,101959.00
2018-02-08T08:17:05.097Z,101964.63
2018-02-08T08:18:09.428Z,101966.28
2018-02-08T08:19:14.485Z,101971.55
2018-02-08T08:20:18.671Z,101975.58
2018-02-08T08:21:22.848Z,101977.69
2018-02-08T08:22:27.036Z,101979.56
2018-02-08T08:23:31.256Z,101979.45
2018-02-08T08:24:35.499Z,101974.77
2018-02-08T08:25:39.748Z,101978.29
2018-02-08T08:26:44.337Z,101983.38
2018-02-08T08:27:48.585Z,101982.40
2018-02-08T08:28:52.771Z,101978.84
2018-02-08T08:29:56.955Z,101981.25
2018-02-08T08:31:02.005Z,101985.58
2018-02-08T08:32:06.774Z,101986.35
2018-02-08T08:33:11.038Z,101977.06
2018-02-08T08:34:15.264Z,101981.89
2018-02-08T08:35:19.699Z,101980.42
2018-02-08T08:36:23.903Z,101978.71
2018-02-08T08:37:28.112Z,101981.89
2018-02-08T08:38:32.816Z,101983.14
2018-02-08T08:39:37.166Z,101978.59
2018-02-08T08:40:41.374Z,101981.17
2018-02-08T08:41:45.863Z,101976.52
2018-02-08T08:42:50.035Z,101975.94
2018-02-08T08:43:54.988Z,101973.02
2018-02-08T08:44:59.178Z,101972.30
2018-02-08T08:46:04.347Z,101978.05
2018-02-08T08:47:08.621Z,101977.11
2018-02-08T08:48:13.637Z,101975.94
2018-02-08T08:49:17.861Z,101970.97
2018-02-08T08:50:22.844Z,101971.63
2018-02-08T08:51:27.407Z,101977.06
2018-02-08T08:52:32.500Z,101974.70
2018-02-08T08:53:36.843Z,101970.87
2018-02-08T08:54:41.992Z,101973.22
2018-02-08T08:55:46.222Z,101975.58
2018-02-08T08:56:50.833Z,101978.86
2018-02-08T08:57:55.047Z,101974.67
2018-02-08T08:58:59.237Z,101974.72
2018-02-08T09:00:03.730Z,101974.28
2018-02-08T09:01:08.042Z,101970.05
2018-02-08T09:02:12.351Z,101970.61
2018-02-08T09:03:16.634Z,101977.20
2018-02-08T09:04:20.922Z,101976.47
2018-02-08T09:05:25.124Z,101971.36
2018-02-08T09:06:30.080Z,101968.97
2018-02-08T09:07:34.374Z,101965.67
2018-02-08T09:08:38.600Z,101971.65
2018-02-08T09:09:42.845Z,101971.02
2018-02-08T09:10:47.106Z,101957.93
2018-02-08T09:11:51.316Z,101961.45
2018-02-08T09:12:55.530Z,101960.45
2018-02-08T09:13:59.761Z,101963.78
2018-02-08T09:15:04.438Z,101961.68
2018-02-08T09:16:09.482Z,101961.16
2018-02-08T09:17:14.481Z,101960.76
2018-02-08T09:18:18.679Z,101958.77
2018-02-08T09:19:22.878Z,101962.75
2018-02-08T09:20:27.148Z,101961.91
2018-02-08T09:21:31.341Z,101964.38
2018-02-08T09:22:35.808Z,101961.61
2018-02-08T09:23:40.878Z,101966.22
2018-02-08T09:24:45.116Z,101968.52
2018-02-08T09:25:49.436Z,101966.30
2018-02-08T09:26:53.657Z,101971.12
2018-02-08T09:27:57.914Z,101974.86
2018-02-08T09:29:02.274Z,101974.52
2018-02-08T09:30:07.068Z,101977.24
2018-02-08T09:31:11.411Z,101978.34
2018-02-08T09:32:15.723Z,101973.31
2018-02-08T09:33:19.917Z,101973.46
2018-02-08T09:34:24.888Z,101976.73
2018-02-08T09:35:29.095Z,101966.47
2018-02-08T09:36:33.688Z,101969.50
2018-02-08T09:37:38.009Z,101967.88
2018-02-08T09:38:42.288Z,101963.83
2018-02-08T09:39:46.498Z,101974.16
2018-02-08T09:40:50.711Z,101970.22
2018-02-08T09:41:54.919Z,101968.45
2018-02-08T09:42:59.113Z,101967.94
2018-02-08T09:44:03.368Z,101971.74
2018-02-08T09:45:07.701Z,101966.06
2018-02-08T09:46:11.914Z,101968.87
2018-02-08T09:47:16.123Z,101969.83
2018-02-08T09:48:20.339Z,101971.59
2018-02-08T09:49:24.582Z,101974.00
2018-02-08T09:50:28.776Z,101970.41
2018-02-08T09:51:33.046Z,101975.16
2018-02-08T09:52:37.960Z,101968.22
2018-02-08T09:53:43.008Z,101967.78
2018-02-08T09:54:47.750Z,101974.10
2018-02-08T09:55:53.753Z,101972.22
2018-02-08T09:56:57.952Z,101981.05
2018-02-08T09:58:02.190Z,101977.66
2018-02-08T09:59:07.285Z,101971.24
2018-02-08T10:00:11.707Z,101975.15
2018-02-08T10:01:16.083Z,101974.96
2018-02-08T10:02:20.305Z,101975.27
2018-02-08T10:03:24.556Z,101973.86
2018-02-08T10:04:28.799Z,101977.09
2018-02-08T10:05:33.847Z,101975.80
2018-02-08T10:06:38.227Z,101982.50
2018-02-08T10:07:44.203Z,101979.19
2018-02-08T10:08:48.417Z,101980.89
2018-02-08T10:09:52.621Z,101979.91
2018-02-08T10:10:56.972Z,101976.11
2018-02-08T10:12:01.288Z,101977.34
2018-02-08T10:13:06.241Z,101979.52
2018-02-08T10:14:10.538Z,101980.02
2018-02-08T10:15:14.776Z,101973.80
2018-02-08T10:16:19.792Z,101973.22
2018-02-08T10:17:23.975Z,101976.27
2018-02-08T10:18:28.254Z,101973.77
2018-02-08T10:19:32.693Z,101971.67
2018-02-08T10:20:37.082Z,101979.13
2018-02-08T10:21:41.301Z,101969.32
2018-02-08T10:22:45.530Z,101968.77
2018-02-08T10:23:49.729Z,101965.59
2018-02-08T10:24:53.964Z,101972.83
2018-02-08T10:25:58.187Z,101972.75
2018-02-08T10:27:02.401Z,101962.99
2018-02-08T10:28:07.226Z,101966.72
2018-02-08T10:29:11.501Z,101971.38
2018-02-08T10:30:15.871Z,101967.38
2018-02-08T10:31:20.842Z,101968.80
2018-02-08T10:32:25.072Z,101972.80
2018-02-08T10:33:29.278Z,101973.88
2018-02-08T10:34:33.545Z,101967.68
2018-02-08T10:35:39.023Z,101978.23
2018-02-08T10:36:43.226Z,101974.84
2018-02-08T10:37:47.441Z,101969.98
2018-02-08T10:38:51.653Z,101971.57
2018-02-08T10:39:55.845Z,101970.20
2018-02-08T10:41:00.059Z,101966.08
2018-02-08T10:42:04.425Z,101961.41
2018-02-08T10:43:09.527Z,101961.58
2018-02-08T10:44:13.779Z,101963.11
2018-02-08T10:45:18.776Z,101957.98
2018-02-08T10:46:22.977Z,101962.53
2018-02-08T10:47:27.179Z,101956.77
2018-02-08T10:48:31.355Z,101955.48
2018-02-08T10:49:35.629Z,101962.46
2018-02-08T10:50:39.836Z,101960.42
2018-02-08T10:51:44.119Z,101956.38
2018-02-08T10:52:48.338Z,101953.24
2018-02-08T10:53:52.503Z,101962.94
2018-02-08T10:54:57.489Z,101961.61
2018-02-08T10:56:01.689Z,101962.44
2018-02-08T10:57:06.063Z,101963.65
2018-02-08T10:58:10.325Z,101960.01
2018-02-08T10:59:14.575Z,101962.77
2018-02-08T11:00:19.559Z,101957.20
2018-02-08T11:01:23.745Z,101960.09
2018-02-08T11:02:27.979Z,101960.27
2018-02-08T11:03:32.198Z,101966.86
2018-02-08T11:04:36.984Z,101962.45
2018-02-08T11:05:41.228Z,101960.23
2018-02-08T11:06:45.446Z,101960.42
2018-02-08T11:07:49.713Z,101955.23
2018-02-08T11:08:53.895Z,101955.50
2018-02-08T11:09:58.076Z,101956.94
2018-02-08T11:11:02.445Z,101959.83
2018-02-08T11:12:06.889Z,101953.06
2018-02-08T11:13:11.375Z,101950.30
2018-02-08T11:14:15.593Z,101942.10
2018-02-08T11:15:20.549Z,101945.34
2018-02-08T11:16:24.819Z,101941.31
2018-02-08T11:17:29.777Z,101948.30
2018-02-08T11:18:34.083Z,101937.97
2018-02-08T11:19:38.532Z,101937.82
2018-02-08T11:20:42.875Z,101946.45
2018-02-08T11:21:47.855Z,101949.47
2018-02-08T11:22:52.049Z,101943.69
2018-02-08T11:23:56.255Z,101950.14
2018-02-08T11:25:00.562Z,101946.37
2018-02-08T11:26:06.640Z,101937.76
2018-02-08T11:27:10.969Z,101946.21
2018-02-08T11:28:15.177Z,101936.23
2018-02-08T11:29:19.350Z,101938.56
2018-02-08T11:30:24.304Z,101934.63
2018-02-08T11:31:28.530Z,101943.84
2018-02-08T11:32:32.836Z,101939.96
2018-02-08T11:33:37.531Z,101942.80
2018-02-08T11:34:41.825Z,101946.19
2018-02-08T11:35:46.775Z,101946.41
2018-02-08T11:36:51.026Z,101943.31
2018-02-08T11:37:55.210Z,101948.97
2018-02-08T11:38:59.425Z,101945.84
2018-02-08T11:40:04.113Z,101945.14
2018-02-08T11:41:09.441Z,101947.13
2018-02-08T11:42:14.795Z,101938.67
2018-02-08T11:43:18.998Z,101945.28
2018-02-08T11:44:23.944Z,101947.91
2018-02-08T11:45:28.161Z,101943.34
2018-02-08T11:46:32.573Z,101941.20
2018-02-08T11:47:37.733Z,101944.27
2018-02-08T11:48:42.015Z,101945.86
2018-02-08T11:49:46.216Z,101940.11
2018-02-08T11:50:51.184Z,101942.55
2018-02-08T11:51:55.397Z,101938.23
2018-02-08T11:52:59.619Z,101936.37
2018-02-08T11:54:03.986Z,101942.32
2018-02-08T11:55:09.571Z,101941.83
2018-02-08T11:56:13.792Z,101936.59
2018-02-08T11:57:18.005Z,101941.49
2018-02-08T11:58:22.192Z,101942.17
2018-02-08T11:59:26.452Z,101943.95
2018-02-08T12:00:31.419Z,101941.92
2018-02-08T12:01:35.663Z,101940.81
2018-02-08T12:02:39.890Z,101938.76
2018-02-08T12:03:44.127Z,101941.86
2018-02-08T12:04:48.374Z,101939.12
2018-02-08T12:05:52.562Z,101940.55
2018-02-08T12:06:56.754Z,101933.48
2018-02-08T12:08:01.733Z,101934.12
2018-02-08T12:09:06.873Z,101936.85
2018-02-08T12:10:11.522Z,101932.45
2018-02-08T12:11:16.501Z,101930.08
2018-02-08T12:12:20.690Z,101932.14
2018-02-08T12:13:24.903Z,101929.55
2018-02-08T12:14:29.103Z,101928.96
2018-02-08T12:15:35.074Z,101928.17
2018-02-08T12:16:39.499Z,101927.61
2018-02-08T12:17:44.841Z,101922.67